Lander, Wyoming
Current Conditions -  °F | °C
As of 3:53 PM on Saturday 25 Oct 2014 (Local Time) from KLND Reporting Station
Clear Clear  
Wind Chill: 75°   Ceiling: Unl
Heat Index: 75°   Visibility: 10mi
Dew Point: 24°   Wind: 8mph
Humidity: 15%   Direction: 90°E
Pressure: 29.95"   Gusts: NA
Location:  42.83°N, 108.73°W
Report Text: KLND 252153Z AUTO 09007KT 10SM CLR 24/M04 A2995 RMK AO2 SLP094 T02391044 TSNO
Loading
Personal Weather Stations






























Interactive Weather Map
Tropical Storm Tracking
New forecast layout! Learn more

10-Day Weather Forecast

Advertisements
Track Severe Weather on mobile